Time;durP1;ratioP1;P1;durP2;ratioP2;P2;SDS_P1;SDS_P2;PMS_P1;PMS_P2;Temp;Humidity;BMP_temperature;BMP_pressure;BME280_temperature;BME280_humidity;BME280_pressure;Samples;Min_cycle;Max_cycle;Signal;HPM_P1;HPM_P2
2024/03/15 00:01:23;;;;;;;8.95;0.90;;;15.30;49.00;;;;;;4981255;28;20096;-71
2024/03/15 00:03:51;;;;;;;2.38;0.85;;;15.30;49.00;;;;;;5013990;28;20436;-72
2024/03/15 00:06:19;;;;;;;0.63;0.55;;;15.20;49.00;;;;;;4996479;28;20058;-71
2024/03/15 00:08:49;;;;;;;1.63;0.68;;;15.20;48.90;;;;;;4997362;28;20072;-71
2024/03/15 00:11:18;;;;;;;2.40;0.70;;;15.20;48.90;;;;;;4981432;28;20061;-72
2024/03/15 00:13:46;;;;;;;1.73;1.45;;;15.20;48.90;;;;;;4998432;28;20475;-71
2024/03/15 00:16:15;;;;;;;1.17;0.82;;;15.20;48.90;;;;;;4994848;28;20050;-72
2024/03/15 00:18:43;;;;;;;0.63;0.63;;;15.20;48.90;;;;;;4997005;28;20473;-71
2024/03/15 00:21:16;;;;;;;2.75;1.05;;;15.20;48.90;;;;;;5003206;28;20924;-71
2024/03/15 00:23:44;;;;;;;8.23;1.42;;;15.10;48.90;;;;;;4994194;28;20553;-71
2024/03/15 00:26:13;;;;;;;5.78;2.20;;;15.10;48.90;;;;;;4998472;28;20823;-71
2024/03/15 00:28:42;;;;;;;4.60;2.38;;;15.00;48.80;;;;;;4996875;28;20171;-71
2024/03/15 00:31:10;;;;;;;1.55;1.10;;;14.90;48.90;;;;;;4993998;28;20061;-71
2024/03/15 00:33:40;;;;;;;0.95;0.80;;;14.90;48.90;;;;;;4995272;28;20041;-71
2024/03/15 00:36:09;;;;;;;3.58;0.90;;;14.90;48.90;;;;;;4981497;28;20500;-70
2024/03/15 00:38:37;;;;;;;0.63;0.63;;;14.80;48.90;;;;;;4994009;28;20131;-71
2024/03/15 00:41:06;;;;;;;2.03;1.17;;;14.90;49.00;;;;;;4988422;28;20592;-71
2024/03/15 00:43:36;;;;;;;5.43;1.17;;;14.90;49.10;;;;;;4997672;28;20247;-71
2024/03/15 00:46:04;;;;;;;0.70;0.70;;;14.80;49.10;;;;;;4999305;28;20049;-72
2024/03/15 00:48:35;;;;;;;1.20;1.10;;;14.80;49.10;;;;;;4999327;28;20057;-71
2024/03/15 00:51:04;;;;;;;2.50;1.63;;;14.90;49.10;;;;;;5004386;28;20150;-71
2024/03/15 00:53:32;;;;;;;5.93;0.80;;;14.90;49.10;;;;;;4993934;28;20064;-71
2024/03/15 00:56:01;;;;;;;2.90;1.52;;;14.90;49.20;;;;;;4995270;28;20072;-71
2024/03/15 00:58:30;;;;;;;14.00;4.40;;;14.90;49.20;;;;;;5014540;28;20127;-71
2024/03/15 01:00:59;;;;;;;0.82;0.82;;;14.90;49.20;;;;;;4986007;28;20500;-72
2024/03/15 01:03:27;;;;;;;9.20;2.75;;;14.90;49.10;;;;;;4995801;28;20064;-73
2024/03/15 01:05:56;;;;;;;0.57;0.57;;;14.80;49.00;;;;;;4997331;28;20057;-71
2024/03/15 01:08:24;;;;;;;0.70;0.70;;;14.80;49.10;;;;;;4996832;28;20058;-72
2024/03/15 01:10:53;;;;;;;0.70;0.55;;;14.70;49.10;;;;;;4970495;28;20779;-70
2024/03/15 01:13:21;;;;;;;0.80;0.80;;;14.70;49.70;;;;;;4997577;28;20057;-70
2024/03/15 01:15:50;;;;;;;0.80;0.77;;;14.60;49.20;;;;;;4999133;28;20566;-70
2024/03/15 01:18:19;;;;;;;0.55;0.55;;;14.60;49.70;;;;;;5011829;28;20061;-72
2024/03/15 01:20:48;;;;;;;2.80;0.73;;;14.60;49.40;;;;;;5000717;28;20107;-72
2024/03/15 01:23:18;;;;;;;2.42;1.17;;;14.50;49.30;;;;;;4995087;28;20249;-72
2024/03/15 01:25:47;;;;;;;1.27;0.82;;;14.50;49.40;;;;;;4983443;28;20509;-70
2024/03/15 01:28:16;;;;;;;1.25;0.85;;;14.50;49.40;;;;;;4997084;28;20111;-70
2024/03/15 01:30:45;;;;;;;0.98;0.80;;;14.50;49.30;;;;;;5001343;28;20084;-72
2024/03/15 01:33:14;;;;;;;0.47;0.47;;;14.50;49.40;;;;;;4999052;28;20104;-72
2024/03/15 01:35:43;;;;;;;1.35;1.08;;;14.50;49.40;;;;;;5017120;28;20540;-71
2024/03/15 01:38:11;;;;;;;0.85;0.70;;;14.50;49.40;;;;;;4999632;28;20050;-71
2024/03/15 01:40:41;;;;;;;0.73;0.73;;;14.40;49.40;;;;;;4993947;28;20104;-72
2024/03/15 01:43:12;;;;;;;4.78;0.77;;;14.50;49.50;;;;;;5009814;28;21193;-71
2024/03/15 01:45:41;;;;;;;0.73;0.73;;;14.50;49.50;;;;;;4999256;28;20135;-70
2024/03/15 01:48:11;;;;;;;3.03;1.10;;;14.40;49.40;;;;;;4984535;28;20483;-71
2024/03/15 01:50:39;;;;;;;0.70;0.70;;;14.50;49.40;;;;;;4998412;28;20053;-71
2024/03/15 01:53:08;;;;;;;0.63;0.63;;;14.40;49.50;;;;;;4993474;28;20044;-71
2024/03/15 01:55:37;;;;;;;0.43;0.43;;;14.40;49.40;;;;;;4990578;28;20430;-71
2024/03/15 01:58:08;;;;;;;0.73;0.70;;;14.40;49.70;;;;;;4999727;28;20131;-72
2024/03/15 02:00:38;;;;;;;2.97;1.00;;;14.40;49.60;;;;;;4999511;28;20734;-72
2024/03/15 02:03:08;;;;;;;0.88;0.70;;;14.40;49.70;;;;;;4993684;28;20069;-70
2024/03/15 02:05:37;;;;;;;0.50;0.50;;;14.40;49.70;;;;;;5015604;28;20059;-71
2024/03/15 02:08:07;;;;;;;0.50;0.50;;;14.40;49.60;;;;;;4987298;28;20077;-71
2024/03/15 02:10:36;;;;;;;1.08;0.70;;;14.40;49.70;;;;;;5015942;28;20125;-71
2024/03/15 02:13:05;;;;;;;0.60;0.52;;;14.40;49.60;;;;;;4992574;28;20084;-71
2024/03/15 02:15:34;;;;;;;0.50;0.50;;;14.40;49.60;;;;;;5000885;28;20057;-70
2024/03/15 02:18:03;;;;;;;0.60;0.60;;;14.40;49.60;;;;;;4995716;28;20053;-71
2024/03/15 02:20:32;;;;;;;0.63;0.60;;;14.40;49.60;;;;;;5000152;28;20053;-71
2024/03/15 02:23:03;;;;;;;0.60;0.60;;;14.40;50.00;;;;;;4989340;28;20136;-70
2024/03/15 02:25:31;;;;;;;2.72;0.95;;;14.00;49.40;;;;;;4990500;28;20061;-71
2024/03/15 02:28:00;;;;;;;0.82;0.82;;;14.30;49.50;;;;;;4996931;28;20046;-71
2024/03/15 02:30:28;;;;;;;0.65;0.65;;;14.30;49.50;;;;;;5001597;28;20072;-71
2024/03/15 02:32:57;;;;;;;0.68;0.65;;;14.30;49.50;;;;;;4992876;28;20057;-71
2024/03/15 02:35:25;;;;;;;0.65;0.60;;;14.30;49.40;;;;;;4999874;28;20144;-72
2024/03/15 02:38:00;;;;;;;0.70;0.70;;;14.30;49.50;;;;;;5009298;28;20472;-70
2024/03/15 02:40:28;;;;;;;0.60;0.60;;;14.20;49.40;;;;;;4994998;28;20061;-71
2024/03/15 02:42:57;;;;;;;0.50;0.50;;;14.20;49.50;;;;;;4975968;28;20191;-71
2024/03/15 02:45:26;;;;;;;0.65;0.63;;;14.20;49.60;;;;;;4974865;28;20060;-72
2024/03/15 02:47:55;;;;;;;0.50;0.50;;;14.10;49.70;;;;;;4984253;28;20055;-70
2024/03/15 02:50:23;;;;;;;0.80;0.80;;;14.10;49.70;;;;;;4973877;28;20104;-71
2024/03/15 02:52:52;;;;;;;0.50;0.50;;;14.10;49.70;;;;;;4990484;28;21214;-72
2024/03/15 02:55:21;;;;;;;0.98;0.60;;;14.10;49.70;;;;;;5002104;28;20050;-70
2024/03/15 02:57:50;;;;;;;0.55;0.55;;;14.10;49.70;;;;;;5012964;28;20053;-70
2024/03/15 03:00:18;;;;;;;0.70;0.65;;;14.10;49.70;;;;;;4999039;28;20057;-71
2024/03/15 03:02:47;;;;;;;1.02;0.85;;;14.10;49.70;;;;;;4995830;28;20053;-71
2024/03/15 03:05:16;;;;;;;0.43;0.43;;;14.10;49.70;;;;;;4995743;28;20093;-70
2024/03/15 03:07:49;;;;;;;1.13;0.40;;;14.10;49.70;;;;;;4998307;28;20482;-70
2024/03/15 03:10:17;;;;;;;1.23;0.65;;;14.10;49.80;;;;;;4994621;28;20119;-71
2024/03/15 03:12:46;;;;;;;3.90;0.70;;;14.20;49.90;;;;;;4998629;28;20146;-70
2024/03/15 03:15:15;;;;;;;1.00;0.80;;;14.20;49.80;;;;;;5010676;28;20156;-70
2024/03/15 03:17:45;;;;;;;1.38;0.82;;;14.20;49.80;;;;;;4998687;28;20235;-72
2024/03/15 03:20:18;;;;;;;0.80;0.50;;;14.20;49.70;;;;;;5004274;28;20061;-70
2024/03/15 03:22:48;;;;;;;1.35;0.57;;;14.20;49.70;;;;;;4997524;28;20060;-71
2024/03/15 03:25:18;;;;;;;0.68;0.68;;;14.10;49.70;;;;;;4998491;28;20587;-70
2024/03/15 03:27:46;;;;;;;0.80;0.50;;;14.10;49.70;;;;;;4992573;28;20057;-70
2024/03/15 03:30:15;;;;;;;1.23;0.60;;;14.10;49.80;;;;;;4995513;28;20054;-70
2024/03/15 03:32:43;;;;;;;0.70;0.63;;;14.10;50.40;;;;;;4996430;28;20118;-70
2024/03/15 03:35:12;;;;;;;0.60;0.60;;;14.10;50.20;;;;;;5004021;28;20145;-69
2024/03/15 03:37:41;;;;;;;0.50;0.50;;;14.10;50.00;;;;;;4992994;28;20523;-69
2024/03/15 03:40:14;;;;;;;0.40;0.40;;;14.20;50.10;;;;;;4983273;28;20146;-70
2024/03/15 03:42:44;;;;;;;0.45;0.45;;;14.20;50.00;;;;;;4997792;28;20262;-70
2024/03/15 03:45:17;;;;;;;0.60;0.60;;;14.20;50.00;;;;;;4997042;28;20128;-71
2024/03/15 03:47:46;;;;;;;1.27;0.93;;;14.20;50.00;;;;;;4997739;28;20064;-69
2024/03/15 03:50:14;;;;;;;0.70;0.70;;;14.20;49.90;;;;;;4999327;28;20065;-69
2024/03/15 03:52:43;;;;;;;0.85;0.85;;;14.30;49.90;;;;;;5013355;28;20068;-70
2024/03/15 03:55:12;;;;;;;0.40;0.40;;;14.20;49.70;;;;;;4994676;28;20107;-70
2024/03/15 03:57:40;;;;;;;0.95;0.43;;;14.30;49.70;;;;;;4995928;28;20053;-69
2024/03/15 04:00:15;;;;;;;0.80;0.80;;;14.30;49.60;;;;;;4996072;28;20049;-70
2024/03/15 04:02:45;;;;;;;0.65;0.60;;;14.20;49.60;;;;;;4983271;28;20057;-69
2024/03/15 04:05:14;;;;;;;2.97;0.80;;;14.20;49.70;;;;;;4999941;28;20057;-69
2024/03/15 04:07:44;;;;;;;1.00;0.70;;;14.20;49.80;;;;;;4978057;28;20072;-69
2024/03/15 04:10:14;;;;;;;0.50;0.50;;;14.20;49.80;;;;;;5004633;28;20049;-70
2024/03/15 04:12:43;;;;;;;0.45;0.45;;;14.30;49.70;;;;;;5007122;28;20184;-69
2024/03/15 04:15:12;;;;;;;0.60;0.60;;;14.30;49.70;;;;;;4995908;28;20986;-70
2024/03/15 04:17:44;;;;;;;0.75;0.45;;;14.30;49.70;;;;;;4997455;28;20058;-69
2024/03/15 04:20:16;;;;;;;1.58;0.70;;;14.30;49.80;;;;;;4998888;28;20085;-68
2024/03/15 04:22:45;;;;;;;3.08;1.08;;;14.30;49.70;;;;;;4996967;28;20053;-72
2024/03/15 04:25:16;;;;;;;0.40;0.40;;;14.30;49.70;;;;;;4976745;28;20056;-69
2024/03/15 04:27:46;;;;;;;1.45;0.68;;;14.30;49.60;;;;;;4995223;28;20061;-70
2024/03/15 04:30:16;;;;;;;0.70;0.60;;;14.30;49.60;;;;;;4997759;28;20103;-69
2024/03/15 04:32:46;;;;;;;0.52;0.50;;;14.40;49.60;;;;;;4996187;28;20069;-71
2024/03/15 04:35:15;;;;;;;0.50;0.40;;;14.30;49.40;;;;;;4993869;28;20053;-68
2024/03/15 04:37:45;;;;;;;3.42;1.23;;;14.30;49.40;;;;;;5006215;28;20062;-69
2024/03/15 04:40:14;;;;;;;0.95;0.55;;;14.30;49.80;;;;;;5010164;28;20121;-70
2024/03/15 04:42:43;;;;;;;0.70;0.63;;;14.30;49.50;;;;;;4997168;28;20380;-69
2024/03/15 04:45:14;;;;;;;2.35;0.73;;;14.20;49.50;;;;;;4994623;28;21107;-70
2024/03/15 04:47:44;;;;;;;0.63;0.63;;;14.20;49.50;;;;;;5012282;28;20500;-69
2024/03/15 04:50:15;;;;;;;0.80;0.80;;;14.20;50.20;;;;;;4998942;28;20065;-70
2024/03/15 04:52:44;;;;;;;1.25;0.80;;;14.20;49.60;;;;;;4984402;28;20064;-69
2024/03/15 04:55:13;;;;;;;0.80;0.80;;;14.20;49.60;;;;;;4995580;28;20057;-70
2024/03/15 04:57:42;;;;;;;0.40;0.40;;;14.30;49.60;;;;;;4999890;28;20053;-69
2024/03/15 05:00:18;;;;;;;0.73;0.68;;;14.30;49.70;;;;;;4999732;28;20096;-69
2024/03/15 05:02:49;;;;;;;0.80;0.60;;;14.30;49.70;;;;;;4985933;28;20082;-69
2024/03/15 05:05:21;;;;;;;0.70;0.70;;;14.30;49.70;;;;;;4998929;28;20933;-71
2024/03/15 05:07:50;;;;;;;0.75;0.75;;;14.30;49.60;;;;;;4981427;28;20057;-69
2024/03/15 05:10:19;;;;;;;1.17;0.88;;;14.30;49.60;;;;;;5000096;28;20094;-69
2024/03/15 05:12:49;;;;;;;0.80;0.80;;;14.30;49.70;;;;;;4999073;28;20403;-67
2024/03/15 05:15:20;;;;;;;0.57;0.57;;;14.30;49.60;;;;;;5007314;28;20084;-70
2024/03/15 05:17:49;;;;;;;0.63;0.63;;;14.20;49.60;;;;;;4988940;28;20053;-68
2024/03/15 05:20:18;;;;;;;1.10;0.70;;;14.20;49.90;;;;;;5002526;28;20227;-69
2024/03/15 05:22:47;;;;;;;0.90;0.88;;;14.20;49.60;;;;;;5001781;28;20112;-68
2024/03/15 05:25:15;;;;;;;0.70;0.70;;;14.20;49.60;;;;;;4986377;28;20057;-65
2024/03/15 05:27:46;;;;;;;1.00;0.60;;;14.20;49.60;;;;;;4935027;28;20696;-63
2024/03/15 05:30:17;;;;;;;0.65;0.60;;;14.20;49.60;;;;;;4994278;28;20063;-63
2024/03/15 05:32:47;;;;;;;0.57;0.57;;;14.20;50.30;;;;;;4977994;28;20140;-62
2024/03/15 05:35:20;;;;;;;0.40;0.40;;;14.20;49.60;;;;;;4989170;28;20624;-64
2024/03/15 05:37:49;;;;;;;2.15;0.77;;;14.20;49.60;;;;;;4989875;28;20053;-65
2024/03/15 05:40:17;;;;;;;0.75;0.70;;;14.30;49.60;;;;;;4991743;28;20132;-63
2024/03/15 05:42:47;;;;;;;0.55;0.55;;;14.20;49.60;;;;;;4992278;28;20057;-64
2024/03/15 05:45:20;;;;;;;1.60;1.20;;;14.30;49.70;;;;;;4989904;28;20061;-64
2024/03/15 05:47:50;;;;;;;9.65;1.33;;;14.30;49.60;;;;;;4992802;28;20636;-62
2024/03/15 05:50:20;;;;;;;1.08;1.00;;;14.40;49.60;;;;;;4976580;28;20443;-63
2024/03/15 05:52:50;;;;;;;1.52;0.80;;;14.40;49.60;;;;;;4987684;28;20075;-63
2024/03/15 05:55:19;;;;;;;1.20;0.77;;;14.40;49.60;;;;;;4976420;28;20060;-65
2024/03/15 05:57:47;;;;;;;0.70;0.70;;;14.50;49.60;;;;;;4991545;28;20049;-63
2024/03/15 06:00:19;;;;;;;2.22;0.68;;;14.60;49.60;;;;;;4973916;28;20112;-64
2024/03/15 06:02:50;;;;;;;1.45;0.70;;;14.60;49.50;;;;;;4988979;28;20088;-63
2024/03/15 06:05:19;;;;;;;0.65;0.65;;;14.60;49.50;;;;;;4991864;28;20500;-63
2024/03/15 06:07:47;;;;;;;0.47;0.47;;;14.70;49.50;;;;;;4994517;28;20060;-64
2024/03/15 06:10:20;;;;;;;1.33;1.00;;;14.70;49.50;;;;;;5009222;28;20061;-63
2024/03/15 06:12:50;;;;;;;1.25;0.90;;;14.70;49.50;;;;;;4990115;28;20128;-68
2024/03/15 06:15:21;;;;;;;0.73;0.57;;;14.80;49.40;;;;;;4996335;28;20743;-64
2024/03/15 06:17:50;;;;;;;0.85;0.60;;;14.80;49.40;;;;;;4992759;28;20053;-66
2024/03/15 06:20:19;;;;;;;2.72;1.13;;;14.80;49.40;;;;;;4995342;28;20408;-64
2024/03/15 06:22:47;;;;;;;0.50;0.50;;;14.80;49.40;;;;;;5006822;28;20146;-70
2024/03/15 06:25:17;;;;;;;1.15;1.05;;;14.90;49.40;;;;;;5007188;28;20065;-65
2024/03/15 06:27:46;;;;;;;0.65;0.65;;;15.00;49.40;;;;;;4972990;28;20049;-64
2024/03/15 06:30:16;;;;;;;1.35;0.70;;;15.10;49.30;;;;;;4991192;28;20058;-65
2024/03/15 06:32:44;;;;;;;0.95;0.77;;;15.10;49.30;;;;;;4982148;28;20144;-68
2024/03/15 06:35:19;;;;;;;0.82;0.82;;;15.20;49.20;;;;;;4987501;28;20594;-64
2024/03/15 06:37:53;;;;;;;1.23;1.13;;;15.20;49.20;;;;;;4993878;28;20080;-66
2024/03/15 06:40:42;;;;;;;0.85;0.82;;;15.40;49.20;;;;;;4977997;28;20053;-65
2024/03/15 06:43:13;;;;;;;1.52;0.70;;;15.50;49.20;;;;;;4988561;28;20053;-66
2024/03/15 06:45:52;;;;;;;0.50;0.50;;;15.60;49.00;;;;;;4993111;28;20057;-63
2024/03/15 06:48:33;;;;;;;0.77;0.77;;;15.60;49.60;;;;;;4990722;28;20052;-64
2024/03/15 06:52:31;;;;;;;0.82;0.82;;;15.70;49.00;;;;;;4982871;28;20232;-66
2024/03/15 06:53:49;;;;;;;2.95;0.60;;;15.80;49.50;;;;;;4999232;28;20057;-64
2024/03/15 06:56:17;;;;;;;2.45;0.80;;;15.80;48.80;;;;;;4992626;28;20067;-61
2024/03/15 06:58:47;;;;;;;0.98;0.75;;;16.00;49.20;;;;;;4992848;28;20172;-70
2024/03/15 07:01:17;;;;;;;1.75;1.00;;;16.30;49.20;;;;;;4990390;28;20265;-66
2024/03/15 07:03:45;;;;;;;2.22;1.08;;;16.50;48.80;;;;;;4992976;28;20057;-67
2024/03/15 07:06:18;;;;;;;0.85;0.82;;;16.60;48.60;;;;;;4992842;28;20057;-67
2024/03/15 07:08:50;;;;;;;7.97;0.82;;;16.80;48.50;;;;;;4990323;28;20144;-69
2024/03/15 07:11:18;;;;;;;1.17;0.77;;;16.90;48.20;;;;;;5008207;28;20057;-65
2024/03/15 07:13:47;;;;;;;1.25;0.90;;;17.00;48.60;;;;;;4992712;28;20053;-64
2024/03/15 07:16:15;;;;;;;2.10;0.85;;;17.30;48.70;;;;;;4975443;28;20056;-68
2024/03/15 07:18:44;;;;;;;1.80;0.80;;;17.10;48.00;;;;;;4992107;28;20049;-66
2024/03/15 07:21:13;;;;;;;0.75;0.75;;;17.20;47.90;;;;;;4987771;28;21778;-65
2024/03/15 07:23:41;;;;;;;4.78;0.82;;;17.30;47.70;;;;;;4991840;28;20104;-66
2024/03/15 07:26:10;;;;;;;5.80;0.75;;;17.40;47.70;;;;;;4987163;28;20717;-63
2024/03/15 07:28:39;;;;;;;1.10;0.82;;;17.50;47.60;;;;;;4988589;28;20053;-68
2024/03/15 07:31:08;;;;;;;0.75;0.75;;;17.60;48.10;;;;;;4965607;28;20551;-68
2024/03/15 07:33:38;;;;;;;0.60;0.57;;;17.70;47.40;;;;;;4986746;28;20080;-70
2024/03/15 07:36:07;;;;;;;0.70;0.70;;;17.80;47.30;;;;;;4967012;28;20048;-64
2024/03/15 07:38:37;;;;;;;0.85;0.80;;;17.80;47.60;;;;;;4990926;28;20129;-64
2024/03/15 07:41:05;;;;;;;0.95;0.63;;;17.80;47.10;;;;;;4974099;28;20155;-69
2024/03/15 07:43:34;;;;;;;1.75;0.60;;;17.80;47.10;;;;;;4989895;28;20081;-64
2024/03/15 07:46:05;;;;;;;2.30;1.30;;;17.90;47.10;;;;;;5005468;28;20052;-65
2024/03/15 07:48:33;;;;;;;0.75;0.70;;;18.00;46.90;;;;;;4990853;28;20103;-69
2024/03/15 07:51:02;;;;;;;1.45;0.82;;;18.10;47.00;;;;;;4967957;28;20160;-66
2024/03/15 07:53:30;;;;;;;1.25;0.95;;;18.30;46.90;;;;;;4991099;28;20220;-65
2024/03/15 07:56:03;;;;;;;0.70;0.70;;;18.50;46.90;;;;;;4989869;28;20041;-64
2024/03/15 07:58:32;;;;;;;0.73;0.70;;;18.60;46.60;;;;;;4992428;28;20057;-69
2024/03/15 08:01:01;;;;;;;3.42;0.60;;;18.70;46.40;;;;;;4967455;28;20495;-64
2024/03/15 08:03:32;;;;;;;0.70;0.70;;;18.90;46.50;;;;;;4992137;28;20090;-64
2024/03/15 08:06:05;;;;;;;6.03;1.30;;;19.10;46.40;;;;;;4992611;28;20085;-64
2024/03/15 08:08:33;;;;;;;2.70;1.02;;;19.30;46.30;;;;;;4989944;28;20061;-64
2024/03/15 08:11:12;;;;;;;2.60;0.63;;;19.60;46.30;;;;;;4999074;28;20053;-68
2024/03/15 08:13:41;;;;;;;0.70;0.45;;;19.90;46.00;;;;;;4973698;28;20072;-67
2024/03/15 08:16:19;;;;;;;0.85;0.50;;;20.20;45.70;;;;;;4992090;28;20060;-66
2024/03/15 08:18:48;;;;;;;0.90;0.60;;;20.40;45.20;;;;;;4972104;28;20632;-64
2024/03/15 08:21:19;;;;;;;13.98;0.90;;;20.70;45.20;;;;;;4987447;28;20057;-64
2024/03/15 08:23:47;;;;;;;1.13;0.95;;;20.80;44.80;;;;;;5004190;28;20068;-64
2024/03/15 08:26:16;;;;;;;0.98;0.57;;;20.90;44.50;;;;;;4993230;28;20061;-66
2024/03/15 08:28:44;;;;;;;0.43;0.40;;;20.90;44.40;;;;;;4979649;28;20045;-67
2024/03/15 08:31:16;;;;;;;0.43;0.43;;;20.90;44.40;;;;;;5002117;28;20540;-65
2024/03/15 08:33:45;;;;;;;3.78;0.68;;;20.90;44.30;;;;;;4993931;28;20049;-69
2024/03/15 08:36:13;;;;;;;2.60;0.77;;;20.90;44.30;;;;;;4992115;28;20534;-63
2024/03/15 08:38:42;;;;;;;1.75;0.90;;;20.90;44.20;;;;;;4997130;28;20084;-65
2024/03/15 08:41:12;;;;;;;0.68;0.68;;;21.00;44.50;;;;;;4986334;28;20638;-66
2024/03/15 08:43:40;;;;;;;0.60;0.50;;;21.10;44.40;;;;;;4995603;28;20133;-63
2024/03/15 08:46:10;;;;;;;1.95;0.70;;;21.30;44.30;;;;;;5002919;28;20076;-65
2024/03/15 08:48:39;;;;;;;1.83;1.20;;;21.60;44.30;;;;;;4995365;28;20081;-65
2024/03/15 08:51:08;;;;;;;5.45;1.13;;;21.80;44.30;;;;;;4986334;28;20077;-66
2024/03/15 08:53:37;;;;;;;1.35;0.70;;;22.10;44.00;;;;;;4994512;28;20046;-69
2024/03/15 08:56:05;;;;;;;2.42;1.08;;;22.40;43.70;;;;;;4981469;28;20051;-65
2024/03/15 08:58:34;;;;;;;0.80;0.73;;;22.70;43.60;;;;;;4974475;28;20427;-67
2024/03/15 09:01:04;;;;;;;0.95;0.80;;;23.10;43.40;;;;;;4983412;28;20100;-69
2024/03/15 09:03:34;;;;;;;0.73;0.60;;;23.60;43.00;;;;;;4978316;28;20053;-71
2024/03/15 09:06:08;;;;;;;1.05;0.63;;;24.00;42.70;;;;;;4994858;28;20058;-69
2024/03/15 09:08:36;;;;;;;3.47;0.68;;;24.40;42.90;;;;;;4995698;28;20057;-70
2024/03/15 09:11:06;;;;;;;1.80;0.70;;;24.50;41.80;;;;;;4986505;28;20195;-69
2024/03/15 09:13:35;;;;;;;6.50;0.52;;;24.80;41.70;;;;;;4979513;28;20126;-66
2024/03/15 09:16:09;;;;;;;2.25;0.70;;;25.10;41.60;;;;;;4973461;28;20060;-69
2024/03/15 09:18:38;;;;;;;1.17;0.75;;;25.30;41.10;;;;;;4977738;28;20493;-63
2024/03/15 09:21:07;;;;;;;0.57;0.57;;;25.50;40.80;;;;;;4967876;28;20339;-66
2024/03/15 09:23:41;;;;;;;0.77;0.52;;;25.60;40.70;;;;;;4994334;28;20141;-66
2024/03/15 09:26:10;;;;;;;2.50;0.82;;;25.70;40.50;;;;;;4985526;28;20049;-71
2024/03/15 09:28:43;;;;;;;4.20;1.08;;;25.70;40.40;;;;;;4990556;28;20061;-70
2024/03/15 09:31:14;;;;;;;4.57;1.00;;;25.90;40.70;;;;;;4987477;28;20057;-73
2024/03/15 09:34:05;;;;;;;0.93;0.73;;;26.20;40.50;;;;;;4996035;28;20594;-69
2024/03/15 09:36:34;;;;;;;1.20;0.77;;;26.50;40.30;;;;;;4993279;28;20058;-73
2024/03/15 09:39:03;;;;;;;1.25;0.90;;;26.70;40.00;;;;;;4983306;28;20061;-65
2024/03/15 09:41:32;;;;;;;0.47;0.47;;;26.90;39.70;;;;;;4976257;28;20057;-63
2024/03/15 09:44:01;;;;;;;1.35;0.85;;;27.00;39.40;;;;;;5004155;28;20143;-65
2024/03/15 09:46:31;;;;;;;2.60;0.70;;;27.20;39.40;;;;;;4991838;28;20051;-65
2024/03/15 09:49:00;;;;;;;7.28;1.38;;;27.50;39.40;;;;;;4981443;28;20152;-66
2024/03/15 09:51:31;;;;;;;0.68;0.68;;;27.70;39.00;;;;;;4992494;28;20168;-66
2024/03/15 09:54:02;;;;;;;1.90;0.90;;;27.90;38.90;;;;;;4991238;28;20104;-65
2024/03/15 09:56:30;;;;;;;2.53;0.55;;;28.10;38.60;;;;;;4977980;28;20056;-68
2024/03/15 09:58:59;;;;;;;1.60;0.85;;;28.30;38.50;;;;;;4980199;28;20813;-65
2024/03/15 10:01:28;;;;;;;3.80;1.05;;;28.60;38.40;;;;;;4991582;28;20428;-65
2024/03/15 10:03:57;;;;;;;1.38;0.93;;;28.70;37.80;;;;;;4976213;28;20136;-66
2024/03/15 10:06:26;;;;;;;0.82;0.70;;;28.60;37.70;;;;;;4979148;28;20128;-68
2024/03/15 10:08:55;;;;;;;4.05;1.30;;;28.60;37.60;;;;;;4986009;28;20092;-65
2024/03/15 10:11:24;;;;;;;2.50;1.08;;;28.60;37.50;;;;;;4990751;28;20508;-67
2024/03/15 10:13:52;;;;;;;1.23;0.90;;;28.30;37.30;;;;;;4976227;28;20041;-66
2024/03/15 10:16:21;;;;;;;2.25;1.50;;;28.20;37.50;;;;;;4979408;28;20797;-66
2024/03/15 10:18:51;;;;;;;1.15;0.70;;;28.10;37.60;;;;;;4967989;28;20131;-65
2024/03/15 10:21:20;;;;;;;0.77;0.70;;;28.30;37.70;;;;;;4993347;28;20140;-65
2024/03/15 10:23:48;;;;;;;3.38;1.02;;;28.50;37.50;;;;;;4973603;28;20049;-65
2024/03/15 10:26:26;;;;;;;1.13;0.70;;;28.70;37.30;;;;;;4988050;28;20053;-64
2024/03/15 10:28:55;;;;;;;1.10;0.90;;;28.90;37.20;;;;;;5000785;28;20065;-65
2024/03/15 10:31:23;;;;;;;1.88;1.50;;;29.70;37.40;;;;;;4988718;28;20061;-67
2024/03/15 10:33:52;;;;;;;1.58;0.90;;;31.00;36.90;;;;;;4976745;28;20509;-66
2024/03/15 10:36:20;;;;;;;0.70;0.50;;;31.80;35.70;;;;;;4989270;28;20056;-65
2024/03/15 10:38:50;;;;;;;1.75;1.17;;;31.80;34.60;;;;;;4974204;28;20049;-64
2024/03/15 10:41:19;;;;;;;4.40;0.80;;;31.80;34.70;;;;;;4989447;28;20083;-68
2024/03/15 10:43:49;;;;;;;5.95;2.63;;;32.20;34.80;;;;;;4988980;28;20447;-65
2024/03/15 10:46:17;;;;;;;5.47;1.40;;;32.90;34.60;;;;;;4986215;28;20531;-66
2024/03/15 10:48:46;;;;;;;3.70;1.05;;;33.40;33.80;;;;;;4988995;28;20072;-64
2024/03/15 10:51:15;;;;;;;14.27;5.05;;;33.60;33.00;;;;;;4990357;28;20045;-66
2024/03/15 10:53:44;;;;;;;3.70;1.92;;;33.50;33.00;;;;;;4973783;28;20053;-62
2024/03/15 10:56:13;;;;;;;4.03;1.45;;;33.70;33.00;;;;;;4990282;28;20054;-65
2024/03/15 10:58:43;;;;;;;6.35;1.85;;;33.90;32.60;;;;;;4991364;28;20097;-66
2024/03/15 11:01:12;;;;;;;6.25;1.33;;;34.00;32.20;;;;;;4982600;28;20908;-63
2024/03/15 11:03:42;;;;;;;3.33;1.70;;;33.80;32.00;;;;;;4991414;28;20053;-64
2024/03/15 11:06:11;;;;;;;4.03;1.77;;;33.50;31.90;;;;;;5004212;28;20064;-65
2024/03/15 11:08:41;;;;;;;1.83;1.48;;;33.20;32.50;;;;;;5007143;28;20509;-66
2024/03/15 11:11:10;;;;;;;1.92;1.30;;;33.00;32.10;;;;;;4999411;28;20069;-63
2024/03/15 11:13:39;;;;;;;4.13;1.95;;;32.80;32.10;;;;;;4973259;28;20053;-64
2024/03/15 11:16:24;;;;;;;7.05;2.08;;;32.70;32.10;;;;;;4964523;28;20057;-67
2024/03/15 11:18:53;;;;;;;4.10;1.48;;;32.50;31.90;;;;;;4988458;28;20061;-66
2024/03/15 11:21:21;;;;;;;11.27;1.85;;;32.20;32.30;;;;;;5003398;28;20046;-65
2024/03/15 11:23:51;;;;;;;2.10;1.38;;;32.00;32.10;;;;;;4990088;28;20520;-66
2024/03/15 11:26:20;;;;;;;4.00;1.20;;;31.50;32.00;;;;;;4972102;28;20049;-64
2024/03/15 11:28:54;;;;;;;2.47;1.17;;;31.00;32.30;;;;;;4985326;28;20072;-67
2024/03/15 11:31:29;;;;;;;2.25;1.33;;;30.40;32.30;;;;;;5001388;28;20402;-64
2024/03/15 11:33:59;;;;;;;7.22;2.95;;;29.80;32.70;;;;;;5004576;28;21358;-65
2024/03/15 11:36:28;;;;;;;5.03;1.30;;;29.20;33.10;;;;;;4986168;28;20064;-66
2024/03/15 11:38:59;;;;;;;6.55;2.45;;;28.80;33.40;;;;;;4983344;28;20127;-65
2024/03/15 11:41:27;;;;;;;8.35;1.30;;;28.30;33.40;;;;;;4986728;28;20092;-64
2024/03/15 11:43:56;;;;;;;2.72;1.40;;;27.80;33.80;;;;;;4987869;28;20057;-64
2024/03/15 11:46:25;;;;;;;1.83;1.38;;;27.50;34.20;;;;;;4955744;28;20061;-63
2024/03/15 11:48:54;;;;;;;3.22;1.48;;;27.20;34.40;;;;;;4962530;28;20046;-71
2024/03/15 11:51:23;;;;;;;1.65;1.30;;;26.90;34.70;;;;;;4969185;28;20142;-67
2024/03/15 11:53:51;;;;;;;3.42;1.88;;;26.80;34.90;;;;;;4983922;28;20068;-66
2024/03/15 11:56:21;;;;;;;3.72;1.30;;;26.70;35.00;;;;;;4986987;28;20068;-67
2024/03/15 11:58:50;;;;;;;2.65;1.38;;;26.70;35.00;;;;;;4997779;28;20955;-63
2024/03/15 12:01:19;;;;;;;8.10;2.42;;;26.70;35.10;;;;;;5006923;28;20080;-67
2024/03/15 12:03:48;;;;;;;4.07;2.70;;;26.70;35.00;;;;;;4972081;28;20049;-66
2024/03/15 12:06:17;;;;;;;5.50;1.50;;;26.50;35.10;;;;;;4983366;28;20476;-63
2024/03/15 12:08:47;;;;;;;2.75;1.42;;;26.30;35.00;;;;;;5001163;28;20143;-67
2024/03/15 12:11:20;;;;;;;1.33;1.10;;;26.20;35.20;;;;;;4970322;28;20621;-63
2024/03/15 12:13:53;;;;;;;2.38;1.23;;;26.10;35.50;;;;;;4964476;28;20136;-67
2024/03/15 12:16:23;;;;;;;14.35;1.70;;;26.20;35.60;;;;;;4986944;28;20476;-66
2024/03/15 12:18:53;;;;;;;5.15;2.45;;;26.20;35.70;;;;;;4978253;28;20049;-64
2024/03/15 12:21:22;;;;;;;2.65;1.95;;;26.40;35.50;;;;;;4972429;28;20049;-65
2024/03/15 12:23:50;;;;;;;6.90;2.10;;;26.50;35.40;;;;;;4985072;28;21057;-62
2024/03/15 12:26:19;;;;;;;1.90;1.45;;;26.60;35.30;;;;;;4961436;28;20384;-66
2024/03/15 12:28:52;;;;;;;7.57;1.65;;;26.60;35.20;;;;;;4977508;28;20253;-65
2024/03/15 12:31:20;;;;;;;23.08;8.38;;;26.60;35.40;;;;;;4982606;28;20051;-64
2024/03/15 12:33:51;;;;;;;16.70;7.05;;;26.50;35.30;;;;;;4982287;28;20064;-67
2024/03/15 12:36:19;;;;;;;14.90;4.97;;;26.40;35.40;;;;;;4987525;28;20081;-64
2024/03/15 12:38:49;;;;;;;4.22;2.28;;;26.30;35.50;;;;;;4985140;28;20060;-63
2024/03/15 12:41:19;;;;;;;9.02;3.97;;;26.30;35.60;;;;;;4987056;28;20071;-62
2024/03/15 12:43:48;;;;;;;2.60;1.88;;;26.20;35.60;;;;;;4987873;28;20064;-64
2024/03/15 12:46:15;;;;;;;4.57;2.80;;;25.90;35.40;;;;;;4972308;28;20492;-64
2024/03/15 12:48:52;;;;;;;9.40;4.07;;;25.70;35.70;;;;;;4986949;28;20845;-67
2024/03/15 12:51:23;;;;;;;6.18;2.95;;;25.40;35.70;;;;;;4987556;28;20144;-64
2024/03/15 12:53:55;;;;;;;8.13;2.10;;;25.20;35.90;;;;;;4990148;28;20488;-64
2024/03/15 12:56:23;;;;;;;7.43;2.80;;;25.00;36.10;;;;;;4974563;28;20510;-65
2024/03/15 12:58:52;;;;;;;10.45;2.42;;;24.80;36.30;;;;;;4982588;28;20064;-64